createdAt,value
2016-03-23T00:00:30.407Z,17.16
2016-03-23T00:01:30.487Z,17.14
2016-03-23T00:02:30.537Z,17.22
2016-03-23T00:03:30.570Z,17.22
2016-03-23T00:04:30.620Z,17.19
2016-03-23T00:05:30.700Z,17.14
2016-03-23T00:06:30.720Z,17.16
2016-03-23T00:07:30.800Z,17.11
2016-03-23T00:08:30.817Z,17.16
2016-03-23T00:09:30.899Z,17.23
2016-03-23T00:10:30.933Z,17.19
2016-03-23T00:11:30.983Z,17.08
2016-03-23T00:12:31.032Z,17.09
2016-03-23T00:13:31.128Z,17.09
2016-03-23T00:14:31.131Z,17.15
2016-03-23T00:15:31.180Z,17.09
2016-03-23T00:16:31.247Z,17.09
2016-03-23T00:17:31.280Z,17.12
2016-03-23T00:18:31.330Z,17.24
2016-03-23T00:19:31.394Z,17.12
2016-03-23T00:20:31.429Z,17.11
2016-03-23T00:21:31.494Z,17.19
2016-03-23T00:22:31.543Z,17.09
2016-03-23T00:23:31.578Z,17.16
2016-03-23T00:24:31.643Z,17.12
2016-03-23T00:25:31.708Z,17.12
2016-03-23T00:26:31.726Z,17.15
2016-03-23T00:27:31.791Z,17.19
2016-03-23T00:28:31.857Z,17.11
2016-03-23T00:29:31.890Z,17.12
2016-03-23T00:30:31.944Z,17.19
2016-03-23T00:31:32.008Z,17.16
2016-03-23T00:32:32.027Z,17.22
2016-03-23T00:33:32.091Z,17.11
2016-03-23T00:34:32.126Z,17.12
2016-03-23T00:35:32.206Z,17.2
2016-03-23T00:36:32.240Z,17.05
2016-03-23T00:37:32.290Z,17.08
2016-03-23T00:38:32.355Z,17.11
2016-03-23T00:39:32.420Z,17.14
2016-03-23T00:40:32.439Z,17.15
2016-03-23T00:41:32.520Z,17.2
2016-03-23T00:42:32.553Z,17.08
2016-03-23T00:43:32.587Z,17.11
2016-03-23T00:44:32.652Z,17.15
2016-03-23T00:45:32.702Z,17.09
2016-03-23T00:46:32.751Z,17.11
2016-03-23T00:47:32.800Z,17.15
2016-03-23T00:48:32.851Z,17.11
2016-03-23T00:49:32.900Z,17.12
2016-03-23T00:50:32.966Z,17.05
2016-03-23T00:51:33.000Z,17.12
2016-03-23T00:52:33.064Z,17.15
2016-03-23T00:53:33.114Z,17.12
2016-03-23T00:54:33.179Z,17.11
2016-03-23T00:55:33.198Z,17.09
2016-03-23T00:56:33.263Z,17.16
2016-03-23T00:57:33.327Z,17.09
2016-03-23T00:58:33.362Z,17.12
2016-03-23T00:59:33.411Z,17.11
2016-03-23T01:00:33.446Z,17.11
2016-03-23T01:01:33.527Z,17.11
2016-03-23T01:02:33.577Z,17.11
2016-03-23T01:03:33.610Z,17.11
2016-03-23T01:04:33.674Z,17.08
2016-03-23T01:05:33.724Z,17.15
2016-03-23T01:06:33.759Z,17.11
2016-03-23T01:07:33.823Z,17.12
2016-03-23T01:08:33.889Z,17.08
2016-03-23T01:09:33.922Z,17.14
2016-03-23T01:10:33.957Z,17.11
2016-03-23T01:11:34.006Z,17.12
2016-03-23T01:12:34.103Z,17.11
2016-03-23T01:13:34.121Z,17.14
2016-03-23T01:14:34.155Z,17.12
2016-03-23T01:15:34.220Z,17.09
2016-03-23T01:16:34.286Z,17.12
2016-03-23T01:17:34.320Z,17.06
2016-03-23T01:18:34.384Z,17.11
2016-03-23T01:19:34.433Z,17.11
2016-03-23T01:20:34.484Z,17.09
2016-03-23T01:21:34.549Z,17.12
2016-03-23T01:22:34.598Z,17.12
2016-03-23T01:23:34.617Z,17.11
2016-03-23T01:24:34.682Z,17.04
2016-03-23T01:25:34.763Z,17.09
2016-03-23T01:26:34.781Z,17.06
2016-03-23T01:27:34.831Z,17.09
2016-03-23T01:28:34.896Z,17.11
2016-03-23T01:29:34.945Z,17.02
2016-03-23T01:30:34.980Z,17.09
2016-03-23T01:31:35.044Z,17.12
2016-03-23T01:32:35.110Z,17.11
2016-03-23T01:33:35.113Z,17.04
2016-03-23T01:34:35.178Z,17.06
2016-03-23T01:35:35.243Z,17.09
2016-03-23T01:36:35.276Z,17.08
2016-03-23T01:37:35.310Z,17.01
2016-03-23T01:38:35.376Z,17.06
2016-03-23T01:39:35.457Z,17.11
2016-03-23T01:40:35.490Z,17.02
2016-03-23T01:41:35.524Z,17.04
2016-03-23T01:42:35.606Z,17.08
2016-03-23T01:43:35.654Z,16.99
2016-03-23T01:44:35.689Z,16.99
2016-03-23T01:45:35.739Z,16.99
2016-03-23T01:46:35.803Z,16.99
2016-03-23T01:47:35.837Z,16.99
2016-03-23T01:48:35.887Z,17.02
2016-03-23T01:49:35.936Z,17.02
2016-03-23T01:50:35.845Z,17.09
2016-03-23T01:51:36.067Z,17.04
2016-03-23T01:52:36.101Z,17.02
2016-03-23T01:53:36.181Z,17.09
2016-03-23T01:54:36.216Z,16.96
2016-03-23T01:55:36.234Z,16.94
2016-03-23T01:56:36.299Z,16.99
2016-03-23T01:57:36.349Z,16.94
2016-03-23T01:58:36.398Z,16.99
2016-03-23T01:59:36.433Z,17.02
2016-03-23T02:00:36.497Z,16.97
2016-03-23T02:01:36.546Z,17.06
2016-03-23T02:02:36.597Z,16.94
2016-03-23T02:03:36.646Z,16.91
2016-03-23T02:04:36.696Z,17.01
2016-03-23T02:05:36.761Z,17.04
2016-03-23T02:06:36.811Z,17.02
2016-03-23T02:07:36.844Z,16.97
2016-03-23T02:08:38.448Z,16.94
2016-03-23T02:09:36.979Z,16.96
2016-03-23T02:10:37.019Z,16.94
2016-03-23T02:11:42.828Z,17.01
2016-03-23T02:12:36.973Z,17.05
2016-03-23T02:13:37.147Z,17.01
2016-03-23T02:14:37.196Z,17.01
2016-03-23T02:15:37.261Z,16.94
2016-03-23T02:16:37.326Z,16.99
2016-03-23T02:17:37.376Z,16.97
2016-03-23T02:18:37.410Z,17.04
2016-03-23T02:19:37.459Z,16.99
2016-03-23T02:20:37.515Z,16.93
2016-03-23T02:21:37.549Z,16.97
2016-03-23T02:22:37.598Z,16.97
2016-03-23T02:23:37.679Z,17.04
2016-03-23T02:24:37.697Z,16.96
2016-03-23T02:25:37.748Z,17.02
2016-03-23T02:26:37.812Z,17.04
2016-03-23T02:27:37.846Z,17.02
2016-03-23T02:28:37.911Z,16.99
2016-03-23T02:29:37.945Z,17.05
2016-03-23T02:30:38.010Z,16.94
2016-03-23T02:31:38.076Z,16.97
2016-03-23T02:32:38.110Z,16.99
2016-03-23T02:33:38.160Z,16.97
2016-03-23T02:34:38.224Z,17.04
2016-03-23T02:35:38.258Z,17.05
2016-03-23T02:36:38.324Z,16.96
2016-03-23T02:37:38.373Z,16.94
2016-03-23T02:38:38.423Z,16.97
2016-03-23T02:39:38.471Z,17.05
2016-03-23T02:40:38.522Z,17.05
2016-03-23T02:41:38.587Z,17.06
2016-03-23T02:42:38.637Z,17.08
2016-03-23T02:43:38.655Z,17.05
2016-03-23T02:44:38.704Z,17.06
2016-03-23T02:45:38.770Z,17.05
2016-03-23T02:46:38.803Z,17.04
2016-03-23T02:47:38.854Z,16.96
2016-03-23T02:48:38.934Z,17.05
2016-03-23T02:49:38.968Z,17.02
2016-03-23T02:50:39.017Z,16.96
2016-03-23T02:51:39.083Z,17.05
2016-03-23T02:52:39.117Z,16.94
2016-03-23T02:53:39.166Z,17.06
2016-03-23T02:54:39.232Z,16.96
2016-03-23T02:55:39.281Z,16.97
2016-03-23T02:56:39.331Z,17.05
2016-03-23T02:57:39.396Z,16.96
2016-03-23T02:58:39.430Z,17.04
2016-03-23T02:59:39.480Z,17.02
2016-03-23T03:00:39.544Z,17.04
2016-03-23T03:01:39.563Z,17.06
2016-03-23T03:02:39.628Z,17.05
2016-03-23T03:03:39.677Z,16.99
2016-03-23T03:04:39.711Z,17.08
2016-03-23T03:05:39.621Z,17.02
2016-03-23T03:06:39.811Z,17.02
2016-03-23T03:07:39.876Z,17.08
2016-03-23T03:08:39.910Z,16.97
2016-03-23T03:09:39.975Z,17.09
2016-03-23T03:10:40.041Z,17.04
2016-03-23T03:11:40.074Z,17.08
2016-03-23T03:12:40.139Z,17.08
2016-03-23T03:13:40.204Z,17.06
2016-03-23T03:14:40.238Z,17.02
2016-03-23T03:15:40.272Z,16.97
2016-03-23T03:16:40.338Z,17.08
2016-03-23T03:17:40.371Z,17.01
2016-03-23T03:18:40.420Z,17.08
2016-03-23T03:19:40.470Z,16.99
2016-03-23T03:20:40.536Z,17.04
2016-03-23T03:21:40.570Z,17.06
2016-03-23T03:22:40.619Z,16.99
2016-03-23T03:23:40.684Z,16.96
2016-03-23T03:24:40.734Z,17.06
2016-03-23T03:25:40.783Z,16.97
2016-03-23T03:26:40.848Z,17.05
2016-03-23T03:27:40.898Z,17.08
2016-03-23T03:28:40.948Z,17.02
2016-03-23T03:29:40.997Z,17.02
2016-03-23T03:30:41.047Z,16.94
2016-03-23T03:31:41.081Z,17.05
2016-03-23T03:32:41.132Z,16.96
2016-03-23T03:33:41.181Z,17.08
2016-03-23T03:34:41.245Z,17.04
2016-03-23T03:35:41.295Z,17.05
2016-03-23T03:36:41.345Z,17.01
2016-03-23T03:37:41.411Z,17.02
2016-03-23T03:38:41.460Z,17.02
2016-03-23T03:39:41.494Z,16.96
2016-03-23T03:40:41.544Z,16.96
2016-03-23T03:41:41.593Z,17.02
2016-03-23T03:42:41.643Z,17.05
2016-03-23T03:43:41.692Z,16.94
2016-03-23T03:44:41.742Z,16.97
2016-03-23T03:45:41.791Z,16.97
2016-03-23T03:46:41.841Z,16.97
2016-03-23T03:47:41.906Z,17.02
2016-03-23T03:48:41.940Z,17.02
2016-03-23T03:49:42.005Z,16.97
2016-03-23T03:50:42.055Z,17.05
2016-03-23T03:51:42.104Z,16.97
2016-03-23T03:52:42.154Z,16.97
2016-03-23T03:53:42.204Z,16.96
2016-03-23T03:54:42.254Z,17.01
2016-03-23T03:55:42.287Z,16.94
2016-03-23T03:56:42.352Z,17.02
2016-03-23T03:57:42.402Z,17.02
2016-03-23T03:58:42.435Z,16.94
2016-03-23T03:59:42.532Z,16.99
2016-03-23T04:00:42.551Z,16.99
2016-03-23T04:01:42.615Z,17.05
2016-03-23T04:02:42.665Z,16.99
2016-03-23T04:03:42.684Z,17.08
2016-03-23T04:04:42.749Z,17.01
2016-03-23T04:05:42.814Z,16.97
2016-03-23T04:06:42.848Z,16.99
2016-03-23T04:07:42.897Z,17.06
2016-03-23T04:08:42.962Z,16.96
2016-03-23T04:09:43.012Z,17.04
2016-03-23T04:10:43.061Z,16.97
2016-03-23T04:11:43.112Z,17.02
2016-03-23T04:12:43.145Z,16.96
2016-03-23T04:13:43.242Z,17.02
2016-03-23T04:14:43.275Z,16.99
2016-03-23T04:15:43.341Z,16.99
2016-03-23T04:16:43.391Z,16.97
2016-03-23T04:17:43.440Z,16.97
2016-03-23T04:18:43.458Z,16.96
2016-03-23T04:19:43.523Z,16.96
2016-03-23T04:20:43.588Z,17.02
2016-03-23T04:21:43.607Z,16.9
2016-03-23T04:22:43.671Z,16.97
2016-03-23T04:23:43.721Z,17.02
2016-03-23T04:24:43.787Z,17.02
2016-03-23T04:25:43.851Z,16.97
2016-03-23T04:26:43.870Z,16.97
2016-03-23T04:27:43.935Z,17.01
2016-03-23T04:28:43.984Z,17.02
2016-03-23T04:29:44.003Z,16.91
2016-03-23T04:30:44.068Z,16.96
2016-03-23T04:31:44.212Z,16.91
2016-03-23T04:32:44.167Z,17.06
2016-03-23T04:33:44.201Z,17.02
2016-03-23T04:34:44.986Z,16.96
2016-03-23T04:35:45.644Z,16.97
2016-03-23T04:36:46.100Z,16.96
2016-03-23T04:37:44.415Z,16.99
2016-03-23T04:38:44.497Z,16.99
2016-03-23T04:39:44.420Z,17.04
2016-03-23T04:40:44.580Z,17.02
2016-03-23T04:41:44.630Z,17.02
2016-03-23T04:42:44.711Z,17.02
2016-03-23T04:43:44.713Z,17.04
2016-03-23T04:44:44.778Z,17.04
2016-03-23T04:45:44.844Z,16.96
2016-03-23T04:46:45.783Z,17.01
2016-03-23T04:47:44.927Z,16.96
2016-03-23T04:48:45.008Z,17.05
2016-03-23T04:49:45.058Z,16.96
2016-03-23T04:50:45.075Z,17.01
2016-03-23T04:51:45.156Z,17.04
2016-03-23T04:52:45.222Z,16.97
2016-03-23T04:53:45.224Z,16.97
2016-03-23T04:54:45.305Z,17.06
2016-03-23T04:55:45.355Z,17.09
2016-03-23T04:56:45.373Z,16.99
2016-03-23T04:57:45.423Z,17.02
2016-03-23T04:58:45.518Z,16.99
2016-03-23T04:59:45.554Z,16.99
2016-03-23T05:00:45.618Z,17.08
2016-03-23T05:01:45.652Z,17.02
2016-03-23T05:02:45.732Z,17.05
2016-03-23T05:03:45.767Z,17.02
2016-03-23T05:04:45.800Z,17.02
2016-03-23T05:05:45.851Z,17.02
2016-03-23T05:06:45.931Z,16.97
2016-03-23T05:07:45.934Z,17.05
2016-03-23T05:08:45.967Z,17.02
2016-03-23T05:09:46.048Z,17.06
2016-03-23T05:10:46.098Z,16.99
2016-03-23T05:11:46.163Z,16.96
2016-03-23T05:12:46.213Z,17.06
2016-03-23T05:13:46.261Z,16.97
2016-03-23T05:14:46.312Z,17.04
2016-03-23T05:15:46.327Z,17.08
2016-03-23T05:16:46.382Z,16.97
2016-03-23T05:17:46.437Z,17.06
2016-03-23T05:18:46.460Z,17.06
2016-03-23T05:19:46.500Z,17.06
2016-03-23T05:20:46.557Z,17.08
2016-03-23T05:21:46.602Z,16.97
2016-03-23T05:22:46.633Z,16.97
2016-03-23T05:23:46.710Z,16.97
2016-03-23T05:24:46.757Z,17.04
2016-03-23T05:25:46.788Z,17.04
2016-03-23T05:26:46.851Z,16.96
2016-03-23T05:27:46.884Z,16.97
2016-03-23T05:28:46.947Z,17.02
2016-03-23T05:29:46.839Z,17.02
2016-03-23T05:30:47.027Z,17.01
2016-03-23T05:31:47.093Z,16.96
2016-03-23T05:32:47.143Z,17.08
2016-03-23T05:33:47.160Z,17.04
2016-03-23T05:34:47.225Z,17.05
2016-03-23T05:35:47.290Z,17.01
2016-03-23T05:36:47.324Z,17.08
2016-03-23T05:37:47.373Z,17.04
2016-03-23T05:38:47.438Z,17.02
2016-03-23T05:39:47.488Z,17.08
2016-03-23T05:40:47.522Z,17.02
2016-03-23T05:41:47.602Z,17.02
2016-03-23T05:42:47.621Z,17.06
2016-03-23T05:43:47.670Z,17.05
2016-03-23T05:44:47.751Z,17.06
2016-03-23T05:45:47.801Z,16.94
2016-03-23T05:46:47.819Z,17.04
2016-03-23T05:47:47.916Z,16.93
2016-03-23T05:48:47.965Z,17.05
2016-03-23T05:49:47.984Z,17.06
2016-03-23T05:50:48.064Z,17.06
2016-03-23T05:51:48.114Z,17.05
2016-03-23T05:52:48.132Z,17.01
2016-03-23T05:53:48.213Z,17.05
2016-03-23T05:54:48.231Z,17.01
2016-03-23T05:55:48.313Z,16.97
2016-03-23T05:56:48.362Z,16.96
2016-03-23T05:57:47.646Z,17.08
2016-03-23T05:58:48.446Z,17.02
2016-03-23T05:59:48.511Z,17.02
2016-03-23T06:00:48.545Z,16.99
2016-03-23T06:01:48.594Z,17.04
2016-03-23T06:02:48.659Z,17.02
2016-03-23T06:03:48.693Z,17.01
2016-03-23T06:04:48.742Z,16.97
2016-03-23T06:05:48.823Z,17.08
2016-03-23T06:06:48.851Z,16.96
2016-03-23T06:07:48.848Z,17.05
2016-03-23T06:08:48.945Z,16.97
2016-03-23T06:09:48.995Z,17.05
2016-03-23T06:10:49.076Z,17.05
2016-03-23T06:11:49.093Z,17.02
2016-03-23T06:12:49.143Z,17.02
2016-03-23T06:13:49.224Z,16.99
2016-03-23T06:14:49.258Z,16.96
2016-03-23T06:15:49.307Z,16.97
2016-03-23T06:16:49.372Z,16.97
2016-03-23T06:17:49.422Z,17.08
2016-03-23T06:18:49.472Z,16.96
2016-03-23T06:19:49.490Z,16.97
2016-03-23T06:20:49.556Z,16.99
2016-03-23T06:21:49.620Z,17.06
2016-03-23T06:22:49.655Z,17.04
2016-03-23T06:23:49.703Z,17.05
2016-03-23T06:24:49.785Z,17.05
2016-03-23T06:25:49.819Z,16.96
2016-03-23T06:26:50.259Z,17.08
2016-03-23T06:27:49.933Z,17.05
2016-03-23T06:28:49.983Z,17.05
2016-03-23T06:29:50.016Z,16.93
2016-03-23T06:30:50.082Z,16.96
2016-03-23T06:31:50.132Z,17.04
2016-03-23T06:32:50.150Z,16.96
2016-03-23T06:33:50.200Z,17.01
2016-03-23T06:34:50.280Z,16.99
2016-03-23T06:35:50.315Z,17.04
2016-03-23T06:36:50.348Z,16.93
2016-03-23T06:37:50.445Z,16.97
2016-03-23T06:38:50.479Z,16.97
2016-03-23T06:39:50.512Z,17.02
2016-03-23T06:40:50.578Z,17.02
2016-03-23T06:41:50.642Z,17.05
2016-03-23T06:42:50.676Z,16.97
2016-03-23T06:43:50.742Z,17.02
2016-03-23T06:44:50.776Z,16.96
2016-03-23T06:45:50.842Z,17.02
2016-03-23T06:46:50.859Z,17.09
2016-03-23T06:47:50.925Z,16.97
2016-03-23T06:48:50.989Z,16.96
2016-03-23T06:49:51.039Z,17.08
2016-03-23T06:50:51.073Z,17.04
2016-03-23T06:51:51.153Z,16.96
2016-03-23T06:52:51.188Z,16.96
2016-03-23T06:53:51.222Z,16.96
2016-03-23T06:54:51.287Z,17.02
2016-03-23T06:55:51.353Z,17.06
2016-03-23T06:56:51.372Z,16.97
2016-03-23T06:57:51.436Z,17.01
2016-03-23T06:58:51.470Z,17.04
2016-03-23T06:59:51.551Z,16.97
2016-03-23T07:00:51.616Z,17.06
2016-03-23T07:01:51.635Z,16.99
2016-03-23T07:02:51.700Z,16.94
2016-03-23T07:03:51.765Z,16.94
2016-03-23T07:04:51.768Z,17.02
2016-03-23T07:05:51.848Z,16.97
2016-03-23T07:06:51.898Z,16.96
2016-03-23T07:07:51.931Z,17.08
2016-03-23T07:08:51.982Z,17.09
2016-03-23T07:09:52.031Z,17.12
2016-03-23T07:10:52.080Z,17.12
2016-03-23T07:11:52.162Z,17.08
2016-03-23T07:12:52.179Z,17.16
2016-03-23T07:13:52.229Z,17.19
2016-03-23T07:14:52.309Z,17.23
2016-03-23T07:15:52.343Z,17.26
2016-03-23T07:16:52.393Z,17.12
2016-03-23T07:17:52.489Z,17.27
2016-03-23T07:18:52.508Z,17.27
2016-03-23T07:19:52.558Z,17.24
2016-03-23T07:20:52.606Z,17.22
2016-03-23T07:21:52.656Z,17.23
2016-03-23T07:22:52.706Z,17.19
2016-03-23T07:23:52.725Z,17.19
2016-03-23T07:24:52.790Z,17.14
2016-03-23T07:25:52.870Z,17.16
2016-03-23T07:26:52.889Z,17.19
2016-03-23T07:27:52.938Z,17.2
2016-03-23T07:28:53.019Z,17.22
2016-03-23T07:29:53.100Z,17.14
2016-03-23T07:30:53.088Z,17.24
2016-03-23T07:31:53.168Z,17.23
2016-03-23T07:32:53.218Z,17.22
2016-03-23T07:33:53.252Z,17.23
2016-03-23T07:34:53.316Z,17.14
2016-03-23T07:35:53.351Z,17.15
2016-03-23T07:36:53.432Z,17.22
2016-03-23T07:37:53.481Z,17.19
2016-03-23T07:38:53.499Z,17.19
2016-03-23T07:39:53.564Z,17.14
2016-03-23T07:40:53.629Z,17.09
2016-03-23T07:41:53.648Z,17.11
2016-03-23T07:42:53.712Z,17.08
2016-03-23T07:43:53.779Z,17.11
2016-03-23T07:44:53.796Z,17.14
2016-03-23T07:45:53.862Z,17.11
2016-03-23T07:46:53.927Z,17.06
2016-03-23T07:47:53.961Z,17.09
2016-03-23T07:48:54.042Z,17.08
2016-03-23T07:49:54.060Z,17.09
2016-03-23T07:50:54.109Z,17.11
2016-03-23T07:51:54.190Z,17.14
2016-03-23T07:52:54.208Z,17.14
2016-03-23T07:53:54.258Z,17.09
2016-03-23T07:54:54.339Z,17.11
2016-03-23T07:55:54.357Z,17.04
2016-03-23T07:56:54.251Z,17.09
2016-03-23T07:57:54.488Z,17.11
2016-03-23T07:58:54.600Z,17.12
2016-03-23T07:59:54.586Z,17.09
2016-03-23T08:00:54.636Z,17.04
2016-03-23T08:01:54.671Z,17.11
2016-03-23T08:02:54.595Z,16.99
2016-03-23T08:03:54.755Z,17.12
2016-03-23T08:04:54.819Z,17.06
2016-03-23T08:05:54.885Z,17.12
2016-03-23T08:06:54.934Z,17.09
2016-03-23T08:07:54.968Z,17.09
2016-03-23T08:08:55.049Z,17.08
2016-03-23T08:09:55.082Z,17.12
2016-03-23T08:10:55.148Z,17.09
2016-03-23T08:11:55.212Z,17.06
2016-03-23T08:12:55.246Z,17.09
2016-03-23T08:13:55.281Z,17.05
2016-03-23T08:14:55.190Z,17.02
2016-03-23T08:15:55.395Z,17.04
2016-03-23T08:16:55.414Z,17.08
2016-03-23T08:17:55.464Z,17.02
2016-03-23T08:18:55.559Z,17.06
2016-03-23T08:19:55.610Z,17.02
2016-03-23T08:20:55.628Z,17.11
2016-03-23T08:21:55.709Z,17.08
2016-03-23T08:22:55.742Z,17.02
2016-03-23T08:23:55.776Z,16.99
2016-03-23T08:24:55.858Z,16.99
2016-03-23T08:25:55.906Z,16.93
2016-03-23T08:26:55.956Z,17.08
2016-03-23T08:27:55.991Z,17.09
2016-03-23T08:28:56.039Z,16.96
2016-03-23T08:29:56.122Z,16.99
2016-03-23T08:30:56.139Z,16.99
2016-03-23T08:31:56.173Z,17.01
2016-03-23T08:32:56.254Z,16.99
2016-03-23T08:33:56.288Z,16.94
2016-03-23T08:34:56.338Z,16.99
2016-03-23T08:35:56.418Z,17.09
2016-03-23T08:36:56.468Z,17.11
2016-03-23T08:37:56.485Z,17.11
2016-03-23T08:38:56.567Z,17.02
2016-03-23T08:39:56.585Z,17.06
2016-03-23T08:40:56.682Z,17.04
2016-03-23T08:41:56.716Z,17.06
2016-03-23T08:42:56.749Z,17.08
2016-03-23T08:43:56.829Z,17.09
2016-03-23T08:44:56.880Z,17.09
2016-03-23T08:45:56.898Z,17.09
2016-03-23T08:46:56.963Z,17.09
2016-03-23T08:47:57.028Z,17.11
2016-03-23T08:48:57.047Z,16.99
2016-03-23T08:49:57.112Z,17.09
2016-03-23T08:50:57.177Z,17.08
2016-03-23T08:51:57.196Z,16.97
2016-03-23T08:52:57.276Z,16.97
2016-03-23T08:53:57.138Z,16.96
2016-03-23T08:54:57.359Z,16.96
2016-03-23T08:55:57.425Z,16.96
2016-03-23T08:56:57.444Z,16.94
2016-03-23T08:57:57.508Z,17.09
2016-03-23T08:58:57.574Z,16.99
2016-03-23T08:59:57.608Z,17.08
2016-03-23T09:00:57.641Z,16.94
2016-03-23T09:01:57.739Z,17.04
2016-03-23T09:02:57.772Z,17.02
2016-03-23T09:03:57.806Z,16.97
2016-03-23T09:04:57.871Z,17.02
2016-03-23T09:05:57.905Z,16.97
2016-03-23T09:06:57.971Z,17.06
2016-03-23T09:07:58.004Z,17.11
2016-03-23T09:08:58.054Z,16.99
2016-03-23T09:09:58.149Z,17.08
2016-03-23T09:10:58.185Z,16.97
2016-03-23T09:11:58.218Z,16.93
2016-03-23T09:12:58.299Z,17.04
2016-03-23T09:13:58.332Z,17.02
2016-03-23T09:14:58.367Z,17.05
2016-03-23T09:15:58.432Z,16.99
2016-03-23T09:16:58.498Z,17.06
2016-03-23T09:17:58.515Z,17.06
2016-03-23T09:18:58.565Z,16.96
2016-03-23T09:19:58.614Z,16.97
2016-03-23T09:20:58.679Z,17.05
2016-03-23T09:21:58.729Z,16.97
2016-03-23T09:22:58.778Z,16.99
2016-03-23T09:23:58.845Z,17.01
2016-03-23T09:24:58.894Z,17.04
2016-03-23T09:25:58.942Z,17.05
2016-03-23T09:26:59.008Z,16.93
2016-03-23T09:27:59.058Z,16.94
2016-03-23T09:28:59.076Z,17.02
2016-03-23T09:29:59.141Z,17.02
2016-03-23T09:30:59.175Z,17.02
2016-03-23T09:31:59.256Z,17.09
2016-03-23T09:32:59.290Z,17.02
2016-03-23T09:33:59.325Z,16.97
2016-03-23T09:34:59.405Z,16.94
2016-03-23T09:35:59.454Z,17.02
2016-03-23T09:36:59.472Z,16.94
2016-03-23T09:37:59.538Z,17.08
2016-03-23T09:38:59.603Z,16.96
2016-03-23T09:39:59.621Z,17.02
2016-03-23T09:40:59.687Z,16.97
2016-03-23T09:41:59.752Z,16.94
2016-03-23T09:42:59.785Z,16.97
2016-03-23T09:43:59.867Z,16.94
2016-03-23T09:44:59.885Z,17.06
2016-03-23T09:45:59.935Z,16.97
2016-03-23T09:47:00.000Z,17.04
2016-03-23T09:48:00.034Z,16.97
2016-03-23T09:49:00.084Z,16.97
2016-03-23T09:50:00.164Z,17.04
2016-03-23T09:51:00.197Z,17.06
2016-03-23T09:52:00.231Z,17.04
2016-03-23T09:53:00.312Z,17.06
2016-03-23T09:54:00.409Z,16.99
2016-03-23T09:55:00.396Z,17.08
2016-03-23T09:56:00.478Z,17.06
2016-03-23T09:57:00.526Z,17.09
2016-03-23T09:58:00.560Z,17.12
2016-03-23T09:59:00.626Z,17.09
2016-03-23T10:00:00.675Z,17.11
2016-03-23T10:01:00.693Z,17.11
2016-03-23T10:02:00.743Z,17.06
2016-03-23T10:03:00.824Z,17.09
2016-03-23T10:04:00.842Z,17.09
2016-03-23T10:05:00.892Z,17.12
2016-03-23T10:06:00.972Z,17.08
2016-03-23T10:07:01.007Z,17.12
2016-03-23T10:08:01.055Z,17.09
2016-03-23T10:09:01.122Z,17.08
2016-03-23T10:10:01.155Z,17.12
2016-03-23T10:11:01.221Z,17.22
2016-03-23T10:12:01.254Z,17.14
2016-03-23T10:13:01.304Z,17.12
2016-03-23T10:14:01.385Z,17.15
2016-03-23T10:15:01.418Z,17.19
2016-03-23T10:16:01.453Z,17.2
2016-03-23T10:17:01.534Z,17.15
2016-03-23T10:18:01.582Z,17.16
2016-03-23T10:19:01.602Z,17.14
2016-03-23T10:20:01.667Z,17.12
2016-03-23T10:21:01.732Z,17.15
2016-03-23T10:22:01.750Z,17.26
2016-03-23T10:23:01.831Z,17.19
2016-03-23T10:24:01.864Z,17.19
2016-03-23T10:25:01.946Z,17.14
2016-03-23T10:26:01.995Z,17.2
2016-03-23T10:27:02.013Z,17.14
2016-03-23T10:28:02.094Z,17.2
2016-03-23T10:29:02.144Z,17.16
2016-03-23T10:30:02.162Z,17.11
2016-03-23T10:31:02.211Z,17.09
2016-03-23T10:32:02.292Z,17.14
2016-03-23T10:33:02.295Z,17.09
2016-03-23T10:34:02.360Z,17.11
2016-03-23T10:35:02.458Z,17.08
2016-03-23T10:36:02.491Z,17.12
2016-03-23T10:37:02.540Z,17.12
2016-03-23T10:38:02.574Z,17.14
2016-03-23T10:39:02.655Z,17.11
2016-03-23T10:40:02.705Z,17.08
2016-03-23T10:41:02.723Z,17.11
2016-03-23T10:42:02.788Z,17.09
2016-03-23T10:43:02.854Z,17.14
2016-03-23T10:44:02.856Z,17.08
2016-03-23T10:45:02.922Z,17.09
2016-03-23T10:46:02.987Z,17.12
2016-03-23T10:47:03.021Z,17.04
2016-03-23T10:48:03.085Z,17.09
2016-03-23T10:49:03.120Z,17.06
2016-03-23T10:50:03.168Z,17.09
2016-03-23T10:51:03.296Z,17.02
2016-03-23T10:52:12.315Z,17.05
2016-03-23T10:53:03.333Z,17.08
2016-03-23T10:54:03.414Z,17.08
2016-03-23T10:55:03.448Z,17.02
2016-03-23T10:56:03.482Z,17.09
2016-03-23T10:57:03.562Z,17.02
2016-03-23T10:58:03.722Z,17.14
2016-03-23T10:59:03.662Z,17.05
2016-03-23T11:00:03.695Z,17.08
2016-03-23T11:01:03.735Z,17.06
2016-03-23T11:02:03.800Z,17.05
2016-03-23T11:03:03.834Z,17.02
2016-03-23T11:04:03.899Z,17.12
2016-03-23T11:05:03.964Z,17.12
2016-03-23T11:06:03.998Z,17.06
2016-03-23T11:07:04.032Z,17.09
2016-03-23T11:08:04.129Z,16.99
2016-03-23T11:09:04.163Z,16.99
2016-03-23T11:10:04.196Z,16.97
2016-03-23T11:11:04.449Z,17.01
2016-03-23T11:12:04.358Z,16.96
2016-03-23T11:13:04.329Z,16.99
2016-03-23T11:14:04.582Z,16.97
2016-03-23T11:15:04.443Z,16.99
2016-03-23T11:16:04.526Z,16.99
2016-03-23T11:17:04.574Z,17.08
2016-03-23T11:18:04.592Z,16.99
2016-03-23T11:19:04.659Z,16.99
2016-03-23T11:20:04.739Z,17.02
2016-03-23T11:21:04.757Z,17.08
2016-03-23T11:22:04.807Z,16.99
2016-03-23T11:23:04.903Z,17.04
2016-03-23T11:24:04.890Z,17.05
2016-03-23T11:25:04.970Z,17.05
2016-03-23T11:26:05.006Z,17.12
2016-03-23T11:27:05.070Z,17.02
2016-03-23T11:28:05.120Z,17.12
2016-03-23T11:29:05.139Z,17.11
2016-03-23T11:30:05.188Z,17.09
2016-03-23T11:31:05.269Z,17.09
2016-03-23T11:32:05.303Z,17.12
2016-03-23T11:33:05.337Z,17.05
2016-03-23T11:34:05.433Z,17.12
2016-03-23T11:35:05.466Z,17.06
2016-03-23T11:36:05.517Z,17.11
2016-03-23T11:37:05.582Z,17.11
2016-03-23T11:38:05.631Z,17.16
2016-03-23T11:39:05.649Z,17.08
2016-03-23T11:40:05.746Z,17.12
2016-03-23T11:41:05.779Z,17.14
2016-03-23T11:42:05.814Z,17.11
2016-03-23T11:43:05.941Z,17.11
2016-03-23T11:44:05.943Z,17.11
2016-03-23T11:45:05.978Z,17.08
2016-03-23T11:46:06.027Z,17.15
2016-03-23T11:47:06.093Z,17.14
2016-03-23T11:48:06.111Z,17.08
2016-03-23T11:49:06.160Z,17.19
2016-03-23T11:50:06.242Z,17.16
2016-03-23T11:51:06.275Z,17.08
2016-03-23T11:52:06.357Z,17.12
2016-03-23T11:53:06.375Z,17.2
2016-03-23T11:54:06.409Z,17.22
2016-03-23T11:55:06.489Z,17.19
2016-03-23T11:56:06.508Z,17.19
2016-03-23T11:57:06.557Z,17.11
2016-03-23T11:58:06.653Z,17.22
2016-03-23T11:59:06.672Z,17.12
2016-03-23T12:00:06.722Z,17.12
2016-03-23T12:01:06.786Z,17.16
2016-03-23T12:02:06.853Z,17.14
2016-03-23T12:03:06.870Z,17.19
2016-03-23T12:04:06.935Z,17.2
2016-03-23T12:05:06.969Z,17.2
2016-03-23T12:06:07.066Z,17.08
2016-03-23T12:07:07.100Z,17.05
2016-03-23T12:08:07.118Z,17.09
2016-03-23T12:09:07.199Z,17.08
2016-03-23T12:10:07.248Z,17.15
2016-03-23T12:11:07.282Z,17.11
2016-03-23T12:12:07.347Z,17.15
2016-03-23T12:13:07.413Z,17.11
2016-03-23T12:14:07.431Z,17.14
2016-03-23T12:15:07.496Z,17.14
2016-03-23T12:16:07.390Z,17.06
2016-03-23T12:17:07.580Z,17.15
2016-03-23T12:18:07.645Z,17.12
2016-03-23T12:19:07.679Z,17.2
2016-03-23T12:20:07.759Z,17.16
2016-03-23T12:21:07.810Z,17.11
2016-03-23T12:22:07.843Z,17.14
2016-03-23T12:23:07.924Z,17.24
2016-03-23T12:24:07.973Z,17.12
2016-03-23T12:25:07.992Z,17.2
2016-03-23T12:26:08.057Z,17.12
2016-03-23T12:27:08.122Z,17.19
2016-03-23T12:28:08.140Z,17.15
2016-03-23T12:29:08.190Z,17.14
2016-03-23T12:30:08.255Z,17.14
2016-03-23T12:31:08.320Z,17.16
2016-03-23T12:32:08.370Z,17.22
2016-03-23T12:33:08.403Z,17.16
2016-03-23T12:34:08.469Z,17.22
2016-03-23T12:35:07.769Z,17.2
2016-03-23T12:36:08.537Z,17.2
2016-03-23T12:37:08.602Z,17.16
2016-03-23T12:38:08.667Z,17.19
2016-03-23T12:39:08.702Z,17.2
2016-03-23T12:40:08.735Z,17.23
2016-03-23T12:41:08.816Z,17.2
2016-03-23T12:42:08.881Z,17.16
2016-03-23T12:43:08.962Z,17.23
2016-03-23T12:44:08.965Z,17.19
2016-03-23T12:45:08.982Z,17.15
2016-03-23T12:46:09.095Z,17.15
2016-03-23T12:47:09.566Z,17.19
2016-03-23T12:48:09.162Z,17.23
2016-03-23T12:49:09.243Z,17.15
2016-03-23T12:50:09.278Z,17.16
2016-03-23T12:51:09.311Z,17.24
2016-03-23T12:52:09.376Z,17.2
2016-03-23T12:53:09.443Z,17.22
2016-03-23T12:54:09.460Z,17.23